createdAt,value
2023-01-11T00:13:31.060Z,21.595
2023-01-11T00:28:32.943Z,21.56
2023-01-11T00:43:34.793Z,21.543
2023-01-11T00:58:36.632Z,21.418
2023-01-11T01:13:38.497Z,21.258
2023-01-11T01:28:40.357Z,21.329
2023-01-11T01:43:42.224Z,21.278
2023-01-11T01:58:44.302Z,21.217
2023-01-11T02:13:46.368Z,21.554
2023-01-11T02:28:48.231Z,18.918
2023-01-11T02:43:50.097Z,23.08
2023-01-11T02:58:51.955Z,20.326
2023-01-11T03:13:53.801Z,21.28
2023-01-11T03:28:55.668Z,20.759
2023-01-11T03:43:57.528Z,18.921
2023-01-11T03:58:59.366Z,20.781
2023-01-11T04:14:01.216Z,21.093
2023-01-11T04:29:03.090Z,19.593
2023-01-11T04:44:04.970Z,20.859
2023-01-11T04:59:06.843Z,20.991
2023-01-11T05:14:08.700Z,21.05
2023-01-11T05:29:10.576Z,21.093
2023-01-11T05:44:12.439Z,21.005
2023-01-11T05:59:14.252Z,21.169
2023-01-11T06:14:16.038Z,21.142
2023-01-11T06:29:17.877Z,21.079
2023-01-11T06:44:19.743Z,21.341
2023-01-11T06:59:21.779Z,21.244
2023-01-11T07:14:23.766Z,21.14
2023-01-11T07:29:25.608Z,20.097
2023-01-11T07:44:27.462Z,20.357
2023-01-11T07:59:29.311Z,20.547
2023-01-11T08:14:31.169Z,20.755
2023-01-11T08:29:33.055Z,21.242
2023-01-11T08:44:35.270Z,21.286
2023-01-11T08:59:37.182Z,21.794
2023-01-11T09:14:39.035Z,21.341
2023-01-11T09:29:40.928Z,21.389
2023-01-11T09:44:42.824Z,21.713
2023-01-11T09:59:44.674Z,21.906
2023-01-11T10:18:25.530Z,22.333
2023-01-11T10:33:44.220Z,23.485
2023-01-11T10:48:46.256Z,23.628
2023-01-11T11:03:48.080Z,24.325
2023-01-11T11:18:49.923Z,24.353
2023-01-11T11:33:51.832Z,24.314
2023-01-11T11:48:53.696Z,24.635
2023-01-11T12:03:55.821Z,24.633
2023-01-11T12:18:57.673Z,25.383
2023-01-11T12:33:59.552Z,25.934
2023-01-11T12:49:01.438Z,25.312
2023-01-11T13:04:03.272Z,24.923
2023-01-11T13:19:05.132Z,25.146
2023-01-11T13:34:07.018Z,25.502
2023-01-11T13:49:08.888Z,25.655
2023-01-11T14:04:10.704Z,25.618
2023-01-11T14:19:12.590Z,25.266
2023-01-11T14:34:14.592Z,25.844
2023-01-11T14:49:16.432Z,28.335
2023-01-11T15:04:18.309Z,27.603
2023-01-11T15:19:20.220Z,27.262
2023-01-11T15:34:22.075Z,27.17
2023-01-11T15:49:23.877Z,27.009
2023-01-11T16:04:25.793Z,26.928
2023-01-11T16:19:27.681Z,26.934
2023-01-11T16:34:29.534Z,26.351
2023-01-11T16:49:31.405Z,26.44
2023-01-11T17:04:33.253Z,26.64
2023-01-11T17:19:35.129Z,26.939
2023-01-11T17:34:37.026Z,26.108
2023-01-11T17:49:38.864Z,26.302
2023-01-11T18:04:40.730Z,26.378
2023-01-11T18:19:42.623Z,26.698
2023-01-11T18:34:44.511Z,26.341
2023-01-11T18:49:46.424Z,27.383
2023-01-11T19:04:48.281Z,26.641
2023-01-11T19:19:50.135Z,25.933
2023-01-11T19:34:51.981Z,25.964
2023-01-11T19:49:53.825Z,24.684
2023-01-11T20:04:55.688Z,24.786
2023-01-11T20:19:57.566Z,24.736
2023-01-11T20:34:59.423Z,24.101
2023-01-11T20:50:01.306Z,26.017
2023-01-11T21:05:03.318Z,23.642
2023-01-11T21:20:05.153Z,23.605
2023-01-11T21:35:07.230Z,23.594
2023-01-11T21:50:09.026Z,23.575
2023-01-11T22:05:10.937Z,23.81
2023-01-11T22:20:12.802Z,23.531
2023-01-11T22:35:14.629Z,23.721
2023-01-11T22:50:16.451Z,23.797
2023-01-11T23:05:18.309Z,24.622
2023-01-11T23:20:20.171Z,24.044
2023-01-11T23:35:22.029Z,24.252
2023-01-11T23:50:23.877Z,24.012
